Time;durP1;ratioP1;P1;durP2;ratioP2;P2;SDS_P1;SDS_P2;PMS_P1;PMS_P2;Temp;Humidity;BMP_temperature;BMP_pressure;BME280_temperature;BME280_humidity;BME280_pressure;Samples;Min_cycle;Max_cycle;Signal;HPM_P1;HPM_P2
2022/06/29 00:01:55;;;;;;;4.60;2.27;;;-40.00;99.90;;;;;;5136889;27;20187;-73
2022/06/29 00:04:21;;;;;;;5.87;2.93;;;-40.00;99.90;;;;;;5136699;27;20170;-77
2022/06/29 00:06:47;;;;;;;5.87;3.37;;;-33.80;99.90;;;;;;5136485;27;20230;-70
2022/06/29 00:09:12;;;;;;;2.60;2.40;;;-26.90;99.90;;;;;;5136180;27;20200;-71
2022/06/29 00:11:38;;;;;;;2.40;2.30;;;-36.30;99.90;;;;;;5136596;27;20161;-71
2022/06/29 00:14:04;;;;;;;2.10;2.00;;;-34.70;99.90;;;;;;5136649;27;20176;-72
2022/06/29 00:16:30;;;;;;;3.07;2.70;;;-40.00;99.90;;;;;;5136600;27;20180;-70
2022/06/29 00:18:55;;;;;;;4.70;2.37;;;-40.00;99.90;;;;;;5136567;27;20210;-71
2022/06/29 00:21:21;;;;;;;5.67;2.43;;;-40.00;99.90;;;;;;5136235;27;20165;-72
2022/06/29 00:23:47;;;;;;;5.40;2.77;;;-40.00;99.90;;;;;;5136732;27;20179;-70
2022/06/29 00:26:13;;;;;;;3.40;3.10;;;-40.00;99.90;;;;;;5136456;27;20170;-70
2022/06/29 00:28:38;;;;;;;2.87;2.77;;;-40.00;99.90;;;;;;5136390;27;20176;-69
2022/06/29 00:31:04;;;;;;;3.57;2.93;;;-40.00;99.90;;;;;;5136523;27;20170;-70
2022/06/29 00:33:30;;;;;;;4.20;2.53;;;-40.00;99.90;;;;;;5136415;27;20165;-71
2022/06/29 00:35:56;;;;;;;8.53;2.83;;;-26.50;99.90;;;;;;5136006;27;20612;-71
2022/06/29 00:38:21;;;;;;;4.10;3.17;;;-32.20;99.90;;;;;;5135123;27;20276;-69
2022/06/29 00:40:47;;;;;;;6.20;2.40;;;-37.80;99.90;;;;;;5140263;27;20561;-69
2022/06/29 00:43:13;;;;;;;3.33;2.53;;;-32.30;99.90;;;;;;5140290;27;20252;-69
2022/06/29 00:45:39;;;;;;;3.83;2.87;;;-27.70;99.90;;;;;;5139335;27;20671;-70
2022/06/29 00:48:05;;;;;;;3.70;2.77;;;-31.80;99.90;;;;;;5140335;27;20496;-70
2022/06/29 00:50:33;;;;;;;2.77;2.60;;;-31.80;99.90;;;;;;5139525;27;20193;-70
2022/06/29 00:53:04;;;;;;;6.70;3.00;;;-30.70;99.90;;;;;;5140252;27;20169;-78
2022/06/29 00:55:31;;;;;;;2.87;2.67;;;-40.00;99.90;;;;;;5140043;27;20464;-77
2022/06/29 00:58:03;;;;;;;3.63;2.80;;;-37.30;99.90;;;;;;5140229;27;20167;-79
2022/06/29 01:00:29;;;;;;;5.13;2.83;;;-39.70;99.90;;;;;;5139924;27;20531;-69
2022/06/29 01:03:01;;;;;;;5.20;3.27;;;-40.00;99.90;;;;;;5139963;27;20561;-70
2022/06/29 01:05:28;;;;;;;4.53;3.40;;;-40.00;99.90;;;;;;5139519;27;20614;-72
2022/06/29 01:07:54;;;;;;;3.10;2.50;;;-36.40;99.90;;;;;;5139961;27;20173;-78
2022/06/29 01:10:21;;;;;;;3.17;2.87;;;-39.90;99.90;;;;;;5139712;27;20324;-77
2022/06/29 01:12:53;;;;;;;6.23;3.20;;;-37.40;99.90;;;;;;5139737;27;20166;-74
2022/06/29 01:15:19;;;;;;;2.70;2.50;;;-35.10;99.90;;;;;;5139715;27;20165;-71
2022/06/29 01:17:45;;;;;;;3.37;3.17;;;-40.00;99.90;;;;;;5139919;27;20162;-72
2022/06/29 01:20:12;;;;;;;2.33;2.00;;;-40.00;99.90;;;;;;5139329;27;20511;-69
2022/06/29 01:22:38;;;;;;;2.73;2.33;;;-40.00;99.90;;;;;;5139572;27;20170;-70
2022/06/29 01:25:05;;;;;;;3.23;2.43;;;-40.00;99.90;;;;;;5139571;27;20161;-72
2022/06/29 01:27:31;;;;;;;6.33;2.50;;;-40.00;99.90;;;;;;5139597;27;20261;-70
2022/06/29 01:29:57;;;;;;;4.73;2.83;;;-40.00;99.90;;;;;;5139254;27;20276;-71
2022/06/29 01:32:23;;;;;;;2.73;2.53;;;-40.00;99.90;;;;;;5139566;27;20211;-76
2022/06/29 01:34:49;;;;;;;3.97;2.50;;;-40.00;99.90;;;;;;5138982;27;20181;-72
2022/06/29 01:37:15;;;;;;;3.00;2.80;;;-40.00;99.90;;;;;;5139167;27;20589;-78
2022/06/29 01:39:42;;;;;;;4.03;2.23;;;-40.00;99.90;;;;;;5139074;27;20230;-79
2022/06/29 01:42:09;;;;;;;2.53;2.30;;;-36.60;99.90;;;;;;5138251;27;20176;-79
2022/06/29 01:44:35;;;;;;;7.30;3.10;;;-40.00;99.90;;;;;;5139042;27;20166;-78
2022/06/29 01:47:03;;;;;;;2.70;2.60;;;-40.00;99.90;;;;;;5139125;27;20165;-74
2022/06/29 01:49:29;;;;;;;4.00;2.20;;;-37.50;99.90;;;;;;5138634;27;20196;-72
2022/06/29 01:51:56;;;;;;;7.13;2.83;;;-34.40;99.90;;;;;;5137853;27;20165;-71
2022/06/29 01:54:22;;;;;;;3.83;2.53;;;-39.60;99.90;;;;;;5139057;27;20172;-72
2022/06/29 01:56:48;;;;;;;2.53;2.33;;;-40.00;99.90;;;;;;5137859;27;20170;-71
2022/06/29 01:59:14;;;;;;;2.40;2.20;;;-40.00;99.90;;;;;;5138972;27;20193;-69
2022/06/29 02:01:40;;;;;;;2.70;2.50;;;-40.00;99.90;;;;;;5138596;27;20161;-77
2022/06/29 02:04:06;;;;;;;3.13;2.90;;;-33.90;99.90;;;;;;5138346;27;20181;-78
2022/06/29 02:06:32;;;;;;;3.73;2.43;;;-40.00;99.90;;;;;;5138235;27;20205;-78
2022/06/29 02:08:58;;;;;;;2.63;2.47;;;-40.00;99.90;;;;;;5138596;27;20169;-77
2022/06/29 02:11:25;;;;;;;5.37;2.53;;;-40.00;99.90;;;;;;5138570;27;20256;-77
2022/06/29 02:13:51;;;;;;;2.87;2.67;;;-40.00;99.90;;;;;;5138698;27;20164;-79
2022/06/29 02:16:17;;;;;;;10.43;3.87;;;-40.00;99.90;;;;;;5138505;27;20166;-78
2022/06/29 02:18:43;;;;;;;7.97;3.13;;;-40.00;99.90;;;;;;5138381;27;20577;-78
2022/06/29 02:21:09;;;;;;;4.30;2.40;;;-40.00;99.90;;;;;;5138467;27;20180;-77
2022/06/29 02:23:35;;;;;;;5.23;2.50;;;-40.00;99.90;;;;;;5138280;27;20157;-70
2022/06/29 02:26:01;;;;;;;5.80;2.63;;;-40.00;99.90;;;;;;5138420;27;20482;-70
2022/06/29 02:28:27;;;;;;;3.00;2.70;;;-40.00;99.90;;;;;;5138489;27;20162;-72
2022/06/29 02:36:22;;;;;;;2.57;2.37;;;-40.00;99.90;;;;;;5138125;27;20233;-71
2022/06/29 02:38:48;;;;;;;2.27;2.07;;;-37.70;99.90;;;;;;5138080;27;20264;-68
2022/06/29 02:41:14;;;;;;;2.77;2.50;;;-31.40;99.90;;;;;;5137988;27;20196;-72
2022/06/29 02:43:40;;;;;;;3.20;2.90;;;-27.80;99.90;;;;;;5138131;27;20165;-72
2022/06/29 02:46:06;;;;;;;2.70;2.50;;;-31.20;99.90;;;;;;5138004;27;20165;-72
2022/06/29 02:48:34;;;;;;;2.93;2.40;;;-28.50;99.90;;;;;;5137651;27;20161;-73
2022/06/29 02:51:00;;;;;;;4.40;3.20;;;-22.90;99.90;;;;;;5137636;27;20213;-72
2022/06/29 02:53:26;;;;;;;2.47;2.37;;;-31.80;99.90;;;;;;5138041;27;20588;-71
2022/06/29 02:55:53;;;;;;;3.43;3.13;;;-32.50;99.90;;;;;;5136777;27;20169;-77
2022/06/29 02:58:19;;;;;;;2.53;2.27;;;-32.80;99.90;;;;;;5137684;27;20157;-72
2022/06/29 03:00:45;;;;;;;3.20;2.67;;;-40.00;99.90;;;;;;5137474;27;20260;-72
2022/06/29 03:03:10;;;;;;;3.83;3.17;;;-40.00;99.90;;;;;;5137476;27;20197;-70
2022/06/29 03:05:36;;;;;;;12.97;3.27;;;-38.90;99.90;;;;;;5137595;27;20208;-70
2022/06/29 03:08:02;;;;;;;3.00;2.70;;;-34.60;99.90;;;;;;5137508;27;20170;-74
2022/06/29 03:10:28;;;;;;;3.80;2.83;;;-40.00;99.90;;;;;;5137501;27;20198;-70
2022/06/29 03:12:53;;;;;;;2.70;2.47;;;-40.00;99.90;;;;;;5137575;27;20517;-74
2022/06/29 03:15:19;;;;;;;3.83;2.70;;;-40.00;99.90;;;;;;5137296;27;20632;-77
2022/06/29 03:17:45;;;;;;;3.20;2.70;;;-40.00;99.90;;;;;;5137225;27;20158;-72
2022/06/29 03:20:13;;;;;;;5.43;3.33;;;-40.00;99.90;;;;;;5137450;27;20169;-76
2022/06/29 03:22:39;;;;;;;2.93;2.70;;;-39.40;99.90;;;;;;5137471;27;20170;-74
2022/06/29 03:25:05;;;;;;;3.70;3.33;;;-35.30;99.90;;;;;;5137530;27;20161;-72
2022/06/29 03:27:32;;;;;;;8.33;3.50;;;-38.70;99.90;;;;;;5137054;27;20176;-72
2022/06/29 03:29:58;;;;;;;4.33;3.20;;;-40.00;99.90;;;;;;5137008;27;20189;-72
2022/06/29 03:32:24;;;;;;;2.60;2.50;;;-40.00;99.90;;;;;;5136142;27;20165;-73
2022/06/29 03:34:49;;;;;;;2.50;2.30;;;-40.00;99.90;;;;;;5137104;27;20532;-72
2022/06/29 03:37:15;;;;;;;12.00;3.60;;;-40.00;99.90;;;;;;5136746;27;20196;-71
2022/06/29 03:39:42;;;;;;;3.33;3.00;;;-40.00;99.90;;;;;;5137045;27;20166;-75
2022/06/29 03:42:07;;;;;;;2.70;2.50;;;-35.10;99.90;;;;;;5135966;27;20173;-76
2022/06/29 03:44:33;;;;;;;3.30;2.93;;;-35.90;99.90;;;;;;5136622;27;20309;-75
2022/06/29 03:46:59;;;;;;;2.53;2.33;;;-36.00;99.90;;;;;;5137051;27;20218;-79
2022/06/29 03:49:26;;;;;;;3.53;3.10;;;-40.00;99.90;;;;;;5136815;27;20266;-78
2022/06/29 03:51:52;;;;;;;3.07;2.40;;;-40.00;99.90;;;;;;5136916;27;20165;-74
2022/06/29 03:54:17;;;;;;;2.57;2.33;;;-37.90;99.90;;;;;;5136761;27;20573;-72
2022/06/29 03:56:43;;;;;;;3.57;3.20;;;-36.30;99.90;;;;;;5136887;27;20161;-70
2022/06/29 03:59:09;;;;;;;3.37;3.00;;;-33.40;99.90;;;;;;5135424;27;20226;-76
2022/06/29 04:01:35;;;;;;;7.47;2.87;;;-36.30;99.90;;;;;;5136617;27;20538;-78
2022/06/29 04:04:01;;;;;;;4.23;3.10;;;-32.40;99.90;;;;;;5136658;27;20244;-76
2022/06/29 04:06:26;;;;;;;3.23;3.00;;;-37.00;99.90;;;;;;5135692;28;20602;-72
2022/06/29 04:08:52;;;;;;;5.37;2.70;;;-27.40;99.90;;;;;;5136533;27;20260;-78
2022/06/29 04:14:02;;;;;;;3.20;2.90;;;-30.50;99.90;;;;;;5137507;27;20164;-71
2022/06/29 04:16:28;;;;;;;3.63;3.33;;;-29.60;99.90;;;;;;5140738;27;20541;-70
2022/06/29 04:18:53;;;;;;;5.27;3.17;;;-27.50;99.90;;;;;;5140499;27;20206;-73
2022/06/29 04:21:19;;;;;;;3.30;3.10;;;-26.40;99.90;;;;;;5140823;27;20222;-73
2022/06/29 04:23:45;;;;;;;5.23;3.50;;;-33.40;99.90;;;;;;5140651;27;20161;-75
2022/06/29 04:26:11;;;;;;;3.00;2.77;;;-31.90;99.90;;;;;;5140866;27;20165;-76
2022/06/29 04:28:37;;;;;;;2.40;2.20;;;-31.60;99.90;;;;;;5140199;27;20173;-76
2022/06/29 04:31:03;;;;;;;3.00;2.80;;;-33.60;99.90;;;;;;5140530;27;20614;-76
2022/06/29 04:33:29;;;;;;;6.40;2.70;;;-35.00;99.90;;;;;;5140502;27;20169;-76
2022/06/29 04:35:55;;;;;;;2.63;2.47;;;-33.20;99.90;;;;;;5140945;27;20165;-77
2022/06/29 04:38:20;;;;;;;3.07;2.73;;;-34.20;99.90;;;;;;5140013;27;20220;-79
2022/06/29 04:40:46;;;;;;;4.03;3.07;;;-33.10;99.90;;;;;;5140529;27;20627;-78
2022/06/29 04:43:12;;;;;;;3.40;2.83;;;-34.00;99.90;;;;;;5140296;27;20168;-73
2022/06/29 04:48:22;;;;;;;3.40;3.10;;;-31.80;99.90;;;;;;5140310;27;20172;-74
2022/06/29 04:50:48;;;;;;;3.40;3.07;;;-34.60;99.90;;;;;;5139964;27;20201;-75
2022/06/29 04:53:13;;;;;;;3.50;2.60;;;-34.80;99.90;;;;;;5140240;27;20197;-78
2022/06/29 04:55:39;;;;;;;5.83;4.27;;;-38.40;99.90;;;;;;5140153;27;20158;-74
2022/06/29 04:58:05;;;;;;;3.23;3.03;;;-27.20;99.90;;;;;;5139934;27;20165;-75
2022/06/29 05:00:31;;;;;;;3.27;2.37;;;-36.70;99.90;;;;;;5140005;27;20584;-77
2022/06/29 05:02:56;;;;;;;2.97;2.77;;;-28.90;99.90;;;;;;5140213;27;20197;-78
2022/06/29 05:05:22;;;;;;;3.97;3.67;;;-40.00;99.90;;;;;;5139748;27;20174;-77
2022/06/29 05:07:48;;;;;;;5.30;3.87;;;-40.00;99.90;;;;;;5139805;27;20673;-79
2022/06/29 05:10:14;;;;;;;6.20;3.90;;;-35.80;99.90;;;;;;5139913;27;20197;-78
2022/06/29 05:12:40;;;;;;;10.87;3.43;;;-40.00;99.90;;;;;;5139562;27;20476;-76
2022/06/29 05:15:07;;;;;;;6.40;2.33;;;-40.00;99.90;;;;;;5139554;27;20164;-75
2022/06/29 05:17:36;;;;;;;5.50;3.97;;;-40.00;99.90;;;;;;5139766;27;20210;-77
2022/06/29 05:20:08;;;;;;;9.50;3.33;;;-40.00;99.90;;;;;;5139676;27;20161;-77
2022/06/29 05:22:34;;;;;;;3.27;3.07;;;-40.00;99.90;;;;;;5139983;27;20248;-80
2022/06/29 05:25:00;;;;;;;3.87;3.30;;;-30.50;99.90;;;;;;5139238;27;20249;-76
2022/06/29 05:27:26;;;;;;;2.60;2.40;;;-25.90;99.90;;;;;;5139365;27;20244;-77
2022/06/29 05:29:52;;;;;;;4.33;3.20;;;-31.50;99.90;;;;;;5139316;27;20342;-76
2022/06/29 05:32:18;;;;;;;7.57;2.93;;;-32.90;99.90;;;;;;5139561;27;20166;-79
2022/06/29 05:34:43;;;;;;;3.07;2.87;;;-31.00;99.90;;;;;;5138889;27;20168;-76
2022/06/29 05:37:09;;;;;;;2.93;2.70;;;-33.20;99.90;;;;;;5139338;27;20451;-77
2022/06/29 05:39:35;;;;;;;3.10;2.60;;;-29.90;99.90;;;;;;5139268;27;20165;-76
2022/06/29 05:42:01;;;;;;;7.57;3.17;;;-32.50;99.90;;;;;;5139317;27;20170;-77
2022/06/29 05:44:26;;;;;;;3.03;2.83;;;-37.10;99.90;;;;;;5139213;27;20607;-77
2022/06/29 05:46:52;;;;;;;6.43;3.93;;;-34.50;99.90;;;;;;5139102;27;20179;-79
2022/06/29 05:49:18;;;;;;;7.10;3.67;;;-35.20;99.90;;;;;;5138442;27;20189;-78
2022/06/29 05:51:44;;;;;;;3.17;2.33;;;-40.00;99.90;;;;;;5138416;27;20657;-70
2022/06/29 05:54:09;;;;;;;2.50;2.30;;;-40.00;99.90;;;;;;5139096;27;20219;-77
2022/06/29 05:56:35;;;;;;;6.90;2.93;;;-40.00;99.90;;;;;;5138511;27;20241;-72
2022/06/29 05:59:01;;;;;;;4.87;2.73;;;-40.00;99.90;;;;;;5137957;27;20172;-76
2022/06/29 06:01:27;;;;;;;3.33;2.40;;;-40.00;99.90;;;;;;5138815;27;20180;-78
2022/06/29 06:03:53;;;;;;;3.37;2.23;;;-40.00;99.90;;;;;;5138777;27;20592;-75
2022/06/29 06:06:18;;;;;;;2.53;2.30;;;-40.00;99.90;;;;;;5138979;27;20173;-73
2022/06/29 06:08:44;;;;;;;2.80;2.23;;;-40.00;99.90;;;;;;5138748;27;20158;-71
2022/06/29 06:11:10;;;;;;;6.07;3.00;;;-40.00;99.90;;;;;;5136838;27;20202;-71
2022/06/29 06:13:36;;;;;;;3.23;1.63;;;-40.00;99.90;;;;;;5138001;27;20165;-70
2022/06/29 06:16:02;;;;;;;2.17;1.83;;;-40.00;99.90;;;;;;5138274;27;20579;-70
2022/06/29 06:18:27;;;;;;;4.93;2.17;;;-40.00;99.90;;;;;;5138198;27;20170;-70
2022/06/29 06:20:53;;;;;;;3.47;2.87;;;-40.00;99.90;;;;;;5137948;27;20637;-71
2022/06/29 06:23:20;;;;;;;3.53;2.30;;;-40.00;99.90;;;;;;5138103;27;20253;-72
2022/06/29 06:25:46;;;;;;;2.60;2.27;;;-40.00;99.90;;;;;;5138256;27;20258;-72
2022/06/29 06:28:12;;;;;;;5.00;2.80;;;-40.00;99.90;;;;;;5136711;27;20615;-70
2022/06/29 06:30:38;;;;;;;3.70;2.10;;;-40.00;99.90;;;;;;5137376;27;20228;-67
2022/06/29 06:33:04;;;;;;;2.20;2.00;;;-40.00;99.90;;;;;;5138233;27;20154;-69
2022/06/29 06:35:30;;;;;;;4.30;3.10;;;-40.00;99.90;;;;;;5138064;27;20477;-71
2022/06/29 06:37:56;;;;;;;3.17;2.50;;;-40.00;99.90;;;;;;5137119;27;20186;-71
2022/06/29 06:43:06;;;;;;;4.40;2.03;;;-40.00;99.90;;;;;;5137773;27;20172;-70
2022/06/29 06:45:32;;;;;;;3.20;2.63;;;-40.00;99.90;;;;;;5137825;27;20471;-70
2022/06/29 06:47:57;;;;;;;4.83;2.30;;;-40.00;99.90;;;;;;5136683;27;20242;-70
2022/06/29 06:50:23;;;;;;;2.27;1.70;;;-40.00;99.90;;;;;;5137607;27;20197;-70
2022/06/29 06:52:49;;;;;;;1.87;1.73;;;-40.00;99.90;;;;;;5137156;27;20600;-70
2022/06/29 06:55:15;;;;;;;5.60;1.87;;;-40.00;99.90;;;;;;5137548;27;20244;-70
2022/06/29 06:57:41;;;;;;;3.93;1.80;;;-40.00;99.90;;;;;;5137586;27;20173;-72
2022/06/29 07:00:09;;;;;;;4.80;2.67;;;-40.00;99.00;;;;;;5137541;27;20289;-69
2022/06/29 07:02:35;;;;;;;2.57;1.83;;;-40.00;98.50;;;;;;5134764;27;20562;-73
2022/06/29 07:05:01;;;;;;;3.00;2.20;;;-40.00;96.90;;;;;;5128149;27;20188;-70
2022/06/29 07:07:27;;;;;;;5.83;2.33;;;-40.00;97.30;;;;;;5121672;27;20200;-69
2022/06/29 07:09:53;;;;;;;1.83;1.73;;;-40.00;96.10;;;;;;5116492;27;20295;-71
2022/06/29 07:12:19;;;;;;;1.80;1.70;;;-40.00;96.10;;;;;;5116525;28;20170;-70
2022/06/29 07:14:44;;;;;;;6.40;2.70;;;-40.00;96.00;;;;;;5121114;27;20165;-69
2022/06/29 07:17:10;;;;;;;2.53;1.77;;;-40.00;95.50;;;;;;5133621;27;20162;-70
2022/06/29 07:19:36;;;;;;;1.90;1.57;;;-40.00;94.30;;;;;;5115574;28;20200;-69
2022/06/29 07:22:02;;;;;;;15.63;10.80;;;-40.00;93.90;;;;;;5115095;28;20178;-69
2022/06/29 07:24:27;;;;;;;4.47;2.40;;;-40.00;94.00;;;;;;5129210;27;20226;-70
2022/06/29 07:26:53;;;;;;;8.67;2.87;;;-40.00;93.30;;;;;;5137572;27;20256;-71
2022/06/29 07:29:19;;;;;;;3.60;2.00;;;-40.00;92.90;;;;;;5140706;27;20276;-69
2022/06/29 07:31:44;;;;;;;3.13;1.70;;;-40.00;92.70;;;;;;5127779;27;20596;-69
2022/06/29 07:34:10;;;;;;;5.17;2.10;;;-40.00;93.30;;;;;;5115748;27;20261;-68
2022/06/29 07:36:36;;;;;;;4.63;3.30;;;-40.00;92.70;;;;;;5115901;28;20185;-69
2022/06/29 07:39:02;;;;;;;4.63;1.60;;;-40.00;92.80;;;;;;5118670;27;20204;-68
2022/06/29 07:41:28;;;;;;;5.03;1.20;;;-40.00;91.50;;;;;;5126340;27;20566;-69
2022/06/29 07:43:54;;;;;;;6.00;3.30;;;-40.00;91.30;;;;;;5114650;28;20174;-82
2022/06/29 07:46:21;;;;;;;6.70;3.93;;;-40.00;91.30;;;;;;5116003;28;20170;-69
2022/06/29 07:48:46;;;;;;;2.27;1.87;;;-40.00;90.50;;;;;;5117126;28;20177;-69
2022/06/29 07:51:12;;;;;;;5.80;2.07;;;-40.00;90.00;;;;;;5136436;27;20193;-70
2022/06/29 07:53:38;;;;;;;4.87;4.17;;;-40.00;90.70;;;;;;5131959;27;20198;-70
2022/06/29 07:56:04;;;;;;;7.90;3.77;;;-40.00;91.50;;;;;;5115698;28;20177;-69
2022/06/29 07:58:29;;;;;;;2.80;1.93;;;-40.00;90.10;;;;;;5116015;28;20162;-71
2022/06/29 08:00:55;;;;;;;4.97;3.23;;;-40.00;89.90;;;;;;5115826;28;20169;-69
2022/06/29 08:03:21;;;;;;;3.83;2.90;;;-40.00;88.80;;;;;;5114393;28;20223;-69
2022/06/29 08:05:47;;;;;;;6.10;4.10;;;-40.00;90.70;;;;;;5115165;28;20206;-69
2022/06/29 08:08:13;;;;;;;10.03;2.30;;;-40.00;91.10;;;;;;5115606;28;20170;-69
2022/06/29 08:10:39;;;;;;;8.93;4.90;;;-40.00;89.00;;;;;;5113880;28;20193;-68
2022/06/29 08:13:04;;;;;;;5.27;3.83;;;-40.00;89.50;;;;;;5115282;28;20210;-69
2022/06/29 08:15:30;;;;;;;11.10;6.23;;;-40.00;88.60;;;;;;5114546;28;20173;-67
2022/06/29 08:17:56;;;;;;;5.43;2.07;;;-40.00;89.00;;;;;;5115763;28;20604;-68
2022/06/29 08:20:23;;;;;;;4.37;1.97;;;-40.00;88.60;;;;;;5115763;28;20167;-72
2022/06/29 08:22:48;;;;;;;4.23;1.80;;;-40.00;86.30;;;;;;5115824;28;20173;-73
2022/06/29 08:25:14;;;;;;;2.30;1.10;;;-40.00;83.50;;;;;;5115198;28;20166;-68
2022/06/29 08:27:41;;;;;;;2.90;1.27;;;-40.00;81.40;;;;;;5115508;28;20181;-72
2022/06/29 08:30:08;;;;;;;1.80;1.67;;;-40.00;82.10;;;;;;5114413;28;20431;-67
2022/06/29 08:32:34;;;;;;;1.93;1.67;;;-12.50;94.60;;;;;;5115287;28;20202;-68
2022/06/29 08:35:01;;;;;;;3.93;2.37;;;22.70;99.90;;;;;;5113484;28;20596;-69
2022/06/29 08:37:30;;;;;;;1.80;1.40;;;22.80;99.90;;;;;;5114717;28;20494;-71
2022/06/29 08:39:56;;;;;;;1.87;1.30;;;22.80;99.90;;;;;;5122416;28;20182;-72
2022/06/29 08:42:23;;;;;;;1.67;1.40;;;22.90;99.90;;;;;;5121802;28;20517;-71
2022/06/29 08:44:50;;;;;;;1.50;1.10;;;22.90;99.90;;;;;;5135036;27;20479;-69
2022/06/29 08:47:16;;;;;;;5.40;3.67;;;22.90;99.90;;;;;;5128588;27;20225;-69
2022/06/29 08:49:44;;;;;;;2.10;1.67;;;22.60;99.90;;;;;;5121478;28;20312;-70
2022/06/29 08:52:10;;;;;;;1.93;1.33;;;22.50;99.90;;;;;;5135476;27;20174;-69
2022/06/29 08:54:40;;;;;;;2.53;1.60;;;20.60;99.90;;;;;;5134475;27;20185;-68
2022/06/29 08:57:07;;;;;;;3.80;1.90;;;23.40;99.90;;;;;;5131489;27;20182;-69
2022/06/29 08:59:36;;;;;;;16.43;4.87;;;23.40;99.90;;;;;;5135579;27;20254;-68
2022/06/29 09:02:03;;;;;;;6.63;1.60;;;23.50;99.90;;;;;;5139424;27;20260;-68
2022/06/29 09:04:28;;;;;;;5.57;2.70;;;23.60;99.90;;;;;;5129972;27;20181;-69
2022/06/29 09:06:55;;;;;;;1.30;1.20;;;23.60;99.90;;;;;;5139041;27;20184;-69
2022/06/29 09:09:22;;;;;;;3.07;2.17;;;23.40;99.90;;;;;;5138597;27;20193;-68
2022/06/29 09:11:50;;;;;;;2.77;2.20;;;23.30;99.90;;;;;;5139228;27;20173;-69
2022/06/29 09:14:19;;;;;;;6.17;2.00;;;23.10;99.90;;;;;;5134338;27;20181;-70
2022/06/29 09:16:59;;;;;;;5.47;2.63;;;-40.00;73.60;;;;;;5138047;27;20599;-68
2022/06/29 09:19:44;;;;;;;3.17;1.93;;;-37.80;74.50;;;;;;5138687;27;20176;-71
2022/06/29 09:22:10;;;;;;;3.20;1.50;;;24.00;99.50;;;;;;5139257;27;20280;-68
2022/06/29 09:24:36;;;;;;;3.23;1.43;;;24.10;99.10;;;;;;5135131;27;20457;-69
2022/06/29 09:27:05;;;;;;;1.13;1.13;;;24.10;98.70;;;;;;5138160;27;20616;-68
2022/06/29 09:29:33;;;;;;;2.83;1.50;;;24.00;98.20;;;;;;5138240;27;20522;-69
2022/06/29 09:32:02;;;;;;;2.67;1.33;;;-40.00;65.80;;;;;;5137679;27;20648;-70
2022/06/29 09:34:34;;;;;;;3.43;1.60;;;-40.00;65.10;;;;;;5137062;27;20180;-70
2022/06/29 09:37:02;;;;;;;3.30;1.63;;;-40.00;67.10;;;;;;5138330;27;20253;-71
2022/06/29 09:39:41;;;;;;;5.13;1.77;;;-40.00;68.30;;;;;;5138728;27;20181;-69
2022/06/29 09:42:13;;;;;;;1.77;1.57;;;-40.00;64.00;;;;;;5129197;27;20182;-70
2022/06/29 09:44:40;;;;;;;8.20;2.37;;;-40.00;62.30;;;;;;5137055;27;20173;-69
2022/06/29 09:47:15;;;;;;;7.33;1.87;;;-40.00;61.50;;;;;;5137761;27;20170;-69
2022/06/29 09:49:43;;;;;;;4.93;2.13;;;-40.00;62.40;;;;;;5138413;27;20280;-70
2022/06/29 09:52:10;;;;;;;2.13;1.60;;;-40.00;62.10;;;;;;5137105;27;20536;-68
2022/06/29 09:54:40;;;;;;;5.83;1.43;;;-40.00;61.50;;;;;;5138224;27;20203;-69
2022/06/29 09:57:08;;;;;;;4.70;2.50;;;-40.00;60.80;;;;;;5137385;27;20644;-69
2022/06/29 10:03:07;;;;;;;5.50;2.93;;;-40.00;63.30;;;;;;5138174;27;20226;-73
2022/06/29 10:05:25;;;;;;;8.83;4.90;;;-40.00;64.00;;;;;;5131569;27;20204;-69
2022/06/29 10:07:53;;;;;;;5.43;2.40;;;-40.00;66.90;;;;;;5137807;27;20583;-70
2022/06/29 10:10:22;;;;;;;5.57;3.10;;;-40.00;62.60;;;;;;5137612;27;20232;-67
2022/06/29 10:16:00;;;;;;;6.67;3.07;;;-40.00;61.00;;;;;;5137197;27;20187;-73
2022/06/29 10:18:32;;;;;;;5.20;2.20;;;-40.00;60.70;;;;;;5136068;27;20196;-69
2022/06/29 10:20:58;;;;;;;4.77;2.63;;;-40.00;59.60;;;;;;5138132;27;20181;-68
2022/06/29 10:23:47;;;;;;;6.93;3.47;;;-40.00;58.50;;;;;;5137763;27;20195;-69
2022/06/29 10:26:32;;;;;;;3.80;2.07;;;-40.00;58.20;;;;;;5123005;27;20188;-70
2022/06/29 10:29:10;;;;;;;5.87;2.60;;;-40.00;59.40;;;;;;5137631;27;20176;-69
2022/06/29 10:31:54;;;;;;;5.27;4.77;;;-40.00;59.00;;;;;;5137196;27;20180;-70
2022/06/29 10:34:30;;;;;;;3.40;2.77;;;-40.00;58.90;;;;;;5135277;27;20214;-70
2022/06/29 10:37:01;;;;;;;3.23;2.83;;;-40.00;59.20;;;;;;5134362;27;20165;-70
2022/06/29 10:39:27;;;;;;;5.63;2.00;;;-40.00;60.40;;;;;;5137566;27;20181;-68
2022/06/29 10:44:59;;;;;;;5.83;2.20;;;25.40;94.20;;;;;;5137587;27;20244;-69
2022/06/29 10:47:25;;;;;;;4.13;1.77;;;25.60;94.30;;;;;;5137146;27;20205;-70
2022/06/29 10:50:23;;;;;;;5.10;1.83;;;25.80;93.10;;;;;;5136873;27;20263;-70
2022/06/29 10:52:53;;;;;;;6.40;2.10;;;25.70;92.90;;;;;;5127723;27;20170;-72
2022/06/29 10:55:20;;;;;;;4.60;1.60;;;25.80;92.00;;;;;;5136853;27;20173;-70
2022/06/29 10:57:46;;;;;;;2.27;1.77;;;26.00;92.50;;;;;;5136706;27;20180;-72
2022/06/29 11:00:18;;;;;;;3.57;2.00;;;26.00;91.60;;;;;;5118136;27;20178;-69
2022/06/29 11:02:44;;;;;;;6.23;2.17;;;25.80;91.40;;;;;;5132991;27;20188;-69
2022/06/29 11:05:11;;;;;;;6.47;2.03;;;25.90;92.10;;;;;;5135395;27;20596;-70
2022/06/29 11:13:12;;;;;;;8.50;3.00;;;25.70;91.40;;;;;;5136835;27;20176;-71
2022/06/29 11:15:50;;;;;;;3.40;2.67;;;25.60;92.80;;;;;;5136447;27;20475;-69
2022/06/29 11:18:20;;;;;;;6.50;3.93;;;25.80;93.20;;;;;;5135557;27;20181;-76
2022/06/29 11:20:51;;;;;;;5.13;2.57;;;25.70;92.30;;;;;;5130873;27;20174;-69
2022/06/29 11:23:27;;;;;;;8.20;3.33;;;23.70;92.90;;;;;;5133964;27;20249;-69
2022/06/29 11:25:54;;;;;;;2.00;1.87;;;26.90;89.70;;;;;;5135986;27;20257;-78
2022/06/29 11:28:25;;;;;;;3.70;2.27;;;26.70;89.10;;;;;;5135906;27;20173;-70
2022/06/29 11:31:12;;;;;;;4.87;2.03;;;26.50;88.60;;;;;;5136658;27;20197;-69
2022/06/29 11:33:46;;;;;;;2.13;1.93;;;26.40;89.20;;;;;;5134667;27;20173;-68
2022/06/29 11:36:18;;;;;;;4.30;2.50;;;-40.00;49.40;;;;;;5129714;27;20248;-70
2022/06/29 11:38:46;;;;;;;3.10;1.60;;;-40.00;49.40;;;;;;5136239;27;20185;-69
2022/06/29 11:41:23;;;;;;;1.43;1.33;;;20.90;82.90;;;;;;5136257;27;20223;-69
2022/06/29 11:44:02;;;;;;;3.10;1.27;;;27.30;87.30;;;;;;5135996;27;20896;-69
2022/06/29 11:46:31;;;;;;;4.80;2.13;;;27.80;87.40;;;;;;5136022;27;20173;-68
2022/06/29 11:51:52;;;;;;;2.93;2.13;;;27.80;84.70;;;;;;5136269;27;20228;-71
2022/06/29 11:54:39;;;;;;;3.07;2.17;;;28.20;90.30;;;;;;5131282;27;20266;-71
2022/06/29 11:57:12;;;;;;;5.70;2.37;;;-40.00;42.60;;;;;;5127997;27;20197;-74
2022/06/29 11:59:39;;;;;;;6.33;1.40;;;11.40;70.30;;;;;;5135738;27;20181;-70
2022/06/29 12:02:06;;;;;;;1.33;1.23;;;28.00;82.70;;;;;;5136312;27;20576;-71
2022/06/29 12:04:34;;;;;;;4.60;1.50;;;26.60;81.90;;;;;;5135805;27;20506;-68
2022/06/29 12:07:06;;;;;;;1.70;1.60;;;28.60;85.60;;;;;;5135271;28;20181;-73
2022/06/29 12:09:32;;;;;;;3.10;1.33;;;-40.00;44.70;;;;;;5134962;28;20228;-77
2022/06/29 12:11:58;;;;;;;8.57;2.70;;;-40.00;41.40;;;;;;5129479;27;20268;-80
2022/06/29 12:14:24;;;;;;;2.80;1.40;;;-40.00;42.40;;;;;;5135640;27;20184;-81
2022/06/29 12:16:50;;;;;;;1.58;1.48;;;-40.00;42.20;;;;;;5135641;27;20162;-77
2022/06/29 12:19:16;;;;;;;1.50;1.40;;;-40.00;42.40;;;;;;5134735;27;20238;-76
2022/06/29 12:21:42;;;;;;;5.07;1.85;;;-40.00;35.50;;;;;;5135744;27;20252;-77
2022/06/29 12:24:08;;;;;;;2.15;1.50;;;-40.00;34.20;;;;;;5134881;27;20179;-80
2022/06/29 12:26:34;;;;;;;2.92;1.75;;;-40.00;33.80;;;;;;5134900;27;20169;-79
2022/06/29 12:28:59;;;;;;;1.73;1.33;;;-40.00;37.40;;;;;;5135356;27;20162;-76
2022/06/29 12:31:26;;;;;;;3.60;1.63;;;-40.00;34.50;;;;;;5135557;27;21168;-79
2022/06/29 12:33:52;;;;;;;5.32;2.13;;;-40.00;34.00;;;;;;5135884;27;20466;-72
2022/06/29 12:36:17;;;;;;;4.30;1.48;;;-40.00;35.10;;;;;;5138718;27;20177;-78
2022/06/29 12:38:43;;;;;;;3.25;1.95;;;-40.00;38.60;;;;;;5138810;27;20268;-71
2022/06/29 12:41:09;;;;;;;3.45;1.45;;;-40.00;38.20;;;;;;5139676;27;20158;-74
2022/06/29 12:43:35;;;;;;;3.83;1.65;;;-40.00;39.90;;;;;;5138512;27;20181;-75
2022/06/29 12:46:01;;;;;;;2.05;1.85;;;-40.00;39.40;;;;;;5135757;27;20185;-78
2022/06/29 12:48:27;;;;;;;3.80;1.63;;;-40.00;35.40;;;;;;5139947;27;20358;-77
2022/06/29 12:50:54;;;;;;;2.10;1.88;;;-40.00;35.20;;;;;;5139524;27;20205;-72
2022/06/29 12:53:20;;;;;;;2.30;2.05;;;-40.00;32.60;;;;;;5138374;27;20182;-75
2022/06/29 12:55:45;;;;;;;2.35;2.15;;;-40.00;33.20;;;;;;5139318;27;20556;-79
2022/06/29 12:58:11;;;;;;;3.22;2.00;;;-40.00;32.50;;;;;;5138743;27;20635;-76
2022/06/29 13:00:37;;;;;;;4.28;2.05;;;-40.00;35.20;;;;;;5138846;27;20181;-78
2022/06/29 13:03:03;;;;;;;5.80;1.70;;;-40.00;33.50;;;;;;5139516;27;20565;-76
2022/06/29 13:05:29;;;;;;;1.70;1.13;;;-40.00;32.00;;;;;;5139311;27;20596;-80
2022/06/29 13:07:55;;;;;;;1.60;1.50;;;-40.00;30.10;;;;;;5139668;27;20173;-80
2022/06/29 13:10:21;;;;;;;3.13;1.98;;;-40.00;30.10;;;;;;5137852;27;20197;-72